createdAt,value
2018-06-01T00:01:46.051Z,96726.39
2018-06-01T00:04:14.455Z,96731.34
2018-06-01T00:06:42.835Z,96710.13
2018-06-01T00:09:18.099Z,96708.95
2018-06-01T00:11:46.491Z,96712.42
2018-06-01T00:14:14.891Z,96711.26
2018-06-01T00:16:43.263Z,96724.88
2018-06-01T00:19:11.667Z,96745.48
2018-06-01T00:21:40.048Z,96754.91
2018-06-01T00:24:08.451Z,96766.36
2018-06-01T00:26:36.862Z,96752.59
2018-06-01T00:29:05.264Z,96744.37
2018-06-01T00:31:33.652Z,96740.96
2018-06-01T00:34:02.050Z,96719.17
2018-06-01T00:36:30.444Z,96699.80
2018-06-01T00:38:58.841Z,96702.44
2018-06-01T00:41:27.231Z,96705.65
2018-06-01T00:43:55.636Z,96708.91
2018-06-01T00:46:24.015Z,96711.08
2018-06-01T00:48:52.419Z,96728.72
2018-06-01T00:51:21.421Z,96743.81
2018-06-01T00:53:50.093Z,96763.39
2018-06-01T00:56:18.483Z,96773.72
2018-06-01T00:58:47.107Z,96778.55
2018-06-01T01:01:15.487Z,96772.69
2018-06-01T01:03:44.275Z,96768.36
2018-06-01T01:06:12.864Z,96762.98
2018-06-01T01:08:41.904Z,96765.06
2018-06-01T01:11:10.706Z,96763.73
2018-06-01T01:13:39.571Z,96749.52
2018-06-01T01:16:08.292Z,96744.66
2018-06-01T01:18:37.072Z,96731.03
2018-06-01T01:21:05.483Z,96725.96
2018-06-01T01:23:34.507Z,96737.43
2018-06-01T01:26:03.470Z,96833.57
2018-06-01T01:28:32.124Z,96854.56
2018-06-01T01:31:00.532Z,96881.92
2018-06-01T01:33:29.135Z,96842.89
2018-06-01T01:35:58.404Z,96852.17
2018-06-01T01:38:27.148Z,96850.05
2018-06-01T01:41:02.409Z,96838.67
2018-06-01T01:43:31.816Z,96849.90
2018-06-01T01:46:00.199Z,96877.33
2018-06-01T01:48:28.856Z,96881.99
2018-06-01T01:50:58.548Z,96879.85
2018-06-01T01:53:27.164Z,96855.23
2018-06-01T01:55:55.693Z,96863.25
2018-06-01T01:58:24.863Z,96899.23
2018-06-01T02:00:53.256Z,96886.63
2018-06-01T02:03:21.645Z,96872.09
2018-06-01T02:05:50.048Z,96896.70
2018-06-01T02:08:18.592Z,96882.86
2018-06-01T02:10:46.993Z,96837.37
2018-06-01T02:13:15.552Z,96864.14
2018-06-01T02:15:44.044Z,96887.69
2018-06-01T02:18:12.515Z,96881.60
2018-06-01T02:20:41.012Z,96874.91
2018-06-01T02:23:09.404Z,96871.08
2018-06-01T02:25:37.811Z,96864.38
2018-06-01T02:28:06.621Z,96850.53
2018-06-01T02:30:35.016Z,96836.84
2018-06-01T02:33:03.396Z,96819.34
2018-06-01T02:35:31.788Z,96816.64
2018-06-01T02:38:00.163Z,96827.92
2018-06-01T02:40:28.564Z,96838.75
2018-06-01T02:42:56.951Z,96835.48
2018-06-01T02:45:25.347Z,96817.03
2018-06-01T02:47:53.727Z,96819.58
2018-06-01T02:50:22.132Z,96809.59
2018-06-01T02:52:50.504Z,96798.99
2018-06-01T02:55:18.904Z,96797.23
2018-06-01T02:57:48.111Z,96793.22
2018-06-01T03:00:16.721Z,96789.54
2018-06-01T03:02:45.104Z,96785.12
2018-06-01T03:05:13.504Z,96783.30
2018-06-01T03:07:41.884Z,96768.80
2018-06-01T03:10:10.293Z,96762.64
2018-06-01T03:12:38.674Z,96758.88
2018-06-01T03:15:07.072Z,96755.84
2018-06-01T03:17:35.452Z,96757.41
2018-06-01T03:20:03.856Z,96753.19
2018-06-01T03:22:32.248Z,96756.30
2018-06-01T03:25:00.644Z,96752.09
2018-06-01T03:27:29.018Z,96753.55
2018-06-01T03:29:57.412Z,96748.67
2018-06-01T03:32:25.795Z,96748.78
2018-06-01T03:34:54.200Z,96745.84
2018-06-01T03:37:22.580Z,96749.28
2018-06-01T03:39:50.971Z,96748.28
2018-06-01T03:42:19.356Z,96749.89
2018-06-01T03:44:47.748Z,96761.61
2018-06-01T03:47:16.127Z,96768.34
2018-06-01T03:49:44.527Z,96769.86
2018-06-01T03:52:12.912Z,96767.33
2018-06-01T03:54:41.312Z,96767.69
2018-06-01T03:57:09.755Z,96764.25
2018-06-01T03:59:38.235Z,96773.87
2018-06-01T04:02:06.615Z,96769.14
2018-06-01T04:04:35.012Z,96776.24
2018-06-01T04:07:03.380Z,96787.22
2018-06-01T04:09:31.784Z,96790.52
2018-06-01T04:12:00.168Z,96796.94
2018-06-01T04:14:28.547Z,96810.62
2018-06-01T04:16:58.088Z,96808.89
2018-06-01T04:19:26.824Z,96816.78
2018-06-01T04:21:55.192Z,96816.48
2018-06-01T04:24:23.575Z,96826.27
2018-06-01T04:26:51.976Z,96832.66
2018-06-01T04:29:20.364Z,96833.25
2018-06-01T04:31:48.771Z,96845.37
2018-06-01T04:34:17.156Z,96851.88
2018-06-01T04:36:45.568Z,96858.15
2018-06-01T04:39:13.948Z,96859.29
2018-06-01T04:41:42.361Z,96860.13
2018-06-01T04:44:10.746Z,96869.63
2018-06-01T04:46:39.144Z,96875.09
2018-06-01T04:49:07.524Z,96883.46
2018-06-01T04:51:35.924Z,96881.84
2018-06-01T04:54:04.296Z,96880.01
2018-06-01T04:56:32.802Z,96884.83
2018-06-01T04:59:02.072Z,96894.12
2018-06-01T05:01:30.816Z,96892.34
2018-06-01T05:03:59.284Z,96897.13
2018-06-01T05:06:27.676Z,96894.29
2018-06-01T05:08:56.051Z,96899.64
2018-06-01T05:11:24.451Z,96897.81
2018-06-01T05:13:52.840Z,96897.73
2018-06-01T05:16:21.236Z,96908.16
2018-06-01T05:18:49.604Z,96904.83
2018-06-01T05:21:18.011Z,96909.27
2018-06-01T05:23:46.396Z,96916.81
2018-06-01T05:26:14.784Z,96909.63
2018-06-01T05:28:43.179Z,96901.31
2018-06-01T05:31:11.568Z,96906.25
2018-06-01T05:33:39.952Z,96907.34
2018-06-01T05:36:08.416Z,96903.73
2018-06-01T05:38:36.788Z,96907.25
2018-06-01T05:41:05.183Z,96914.91
2018-06-01T05:43:33.557Z,96917.70
2018-06-01T05:46:01.952Z,96922.73
2018-06-01T05:48:30.330Z,96920.45
2018-06-01T05:50:58.729Z,96920.36
2018-06-01T05:53:27.103Z,96923.68
2018-06-01T05:55:55.484Z,96922.73
2018-06-01T05:58:23.888Z,96931.38
2018-06-01T06:00:52.269Z,96933.27
2018-06-01T06:03:20.667Z,96934.11
2018-06-01T06:05:49.160Z,96945.97
2018-06-01T06:08:17.555Z,96944.86
2018-06-01T06:10:45.956Z,96943.09
2018-06-01T06:13:14.784Z,96942.17
2018-06-01T06:15:43.112Z,96945.70
2018-06-01T06:18:11.523Z,96941.82
2018-06-01T06:20:39.896Z,96947.58
2018-06-01T06:23:08.304Z,96948.20
2018-06-01T06:25:36.698Z,96942.82
2018-06-01T06:28:05.093Z,96931.81
2018-06-01T06:30:33.471Z,96932.98
2018-06-01T06:33:01.868Z,96928.09
2018-06-01T06:35:30.247Z,96924.24
2018-06-01T06:37:58.635Z,96925.64
2018-06-01T06:40:27.036Z,96919.46
2018-06-01T06:42:55.443Z,96925.30
2018-06-01T06:45:23.819Z,96922.39
2018-06-01T06:47:52.219Z,96918.86
2018-06-01T06:50:20.587Z,96914.09
2018-06-01T06:52:49.001Z,96920.20
2018-06-01T06:55:17.383Z,96912.89
2018-06-01T06:57:46.353Z,96920.20
2018-06-01T07:00:15.239Z,96911.00
2018-06-01T07:02:43.778Z,96923.25
2018-06-01T07:05:12.696Z,96915.85
2018-06-01T07:07:41.320Z,96929.20
2018-06-01T07:10:09.708Z,96929.28
2018-06-01T07:12:38.284Z,96924.38
2018-06-01T07:15:06.868Z,96924.39
2018-06-01T07:17:35.528Z,96915.91
2018-06-01T07:20:04.219Z,96919.22
2018-06-01T07:22:32.764Z,96917.75
2018-06-01T07:25:01.211Z,96924.20
2018-06-01T07:27:29.616Z,96923.52
2018-06-01T07:29:57.995Z,96920.34
2018-06-01T07:32:26.401Z,96926.38
2018-06-01T07:34:54.786Z,96916.56
2018-06-01T07:37:23.164Z,96919.78
2018-06-01T07:39:51.564Z,96919.31
2018-06-01T07:42:19.935Z,96924.06
2018-06-01T07:44:48.348Z,96923.56
2018-06-01T07:47:16.735Z,96924.70
2018-06-01T07:49:45.131Z,96919.52
2018-06-01T07:52:13.516Z,96915.11
2018-06-01T07:54:41.916Z,96927.71
2018-06-01T07:57:10.288Z,96925.06
2018-06-01T07:59:38.935Z,96931.13
2018-06-01T08:02:07.691Z,96940.66
2018-06-01T08:04:36.317Z,96934.81
2018-06-01T08:07:04.884Z,96928.36
2018-06-01T08:09:33.388Z,96942.25
2018-06-01T08:12:01.859Z,96942.23
2018-06-01T08:14:30.584Z,96943.78
2018-06-01T08:16:59.399Z,96947.39
2018-06-01T08:19:27.806Z,96952.37
2018-06-01T08:21:56.188Z,96953.48
2018-06-01T08:24:24.589Z,96962.06
2018-06-01T08:26:52.987Z,96964.18
2018-06-01T08:29:21.386Z,96961.91
2018-06-01T08:31:49.766Z,96965.13
2018-06-01T08:34:18.164Z,96963.53
2018-06-01T08:36:46.535Z,96965.12
2018-06-01T08:39:14.937Z,96977.72
2018-06-01T08:41:43.325Z,96975.89
2018-06-01T08:44:11.714Z,96974.90
2018-06-01T08:46:40.152Z,96984.38
2018-06-01T08:49:08.487Z,96986.14
2018-06-01T08:51:36.860Z,96985.17
2018-06-01T08:54:05.233Z,96993.62
2018-06-01T08:56:33.631Z,96983.23
2018-06-01T08:59:02.085Z,96986.17
2018-06-01T09:01:30.440Z,96990.31
2018-06-01T09:03:59.273Z,96993.95
2018-06-01T09:06:27.684Z,96990.55
2018-06-01T09:08:57.005Z,96995.77
2018-06-01T09:11:25.419Z,96996.33
2018-06-01T09:13:53.896Z,96999.79
2018-06-01T09:16:22.303Z,96999.15
2018-06-01T09:18:50.847Z,96996.17
2018-06-01T09:21:19.363Z,97001.73
2018-06-01T09:23:47.744Z,97001.95
2018-06-01T09:26:16.204Z,97006.20
2018-06-01T09:28:44.679Z,97009.48
2018-06-01T09:31:13.095Z,97008.22
2018-06-01T09:33:41.485Z,97013.98
2018-06-01T09:36:10.115Z,97010.88
2018-06-01T09:38:39.824Z,97010.60
2018-06-01T09:41:08.229Z,97013.74
2018-06-01T09:43:36.608Z,97009.32
2018-06-01T09:46:05.191Z,97018.25
2018-06-01T09:48:33.572Z,97013.01
2018-06-01T09:51:02.156Z,97016.80
2018-06-01T09:53:31.044Z,97026.59
2018-06-01T09:55:59.593Z,97022.09
2018-06-01T09:58:28.399Z,97028.59
2018-06-01T10:01:00.309Z,97029.88
2018-06-01T10:03:29.483Z,97033.80
2018-06-01T10:05:58.164Z,97025.00
2018-06-01T10:08:26.645Z,97019.75
2018-06-01T10:10:55.053Z,97015.94
2018-06-01T10:13:23.434Z,97023.52
2018-06-01T10:15:51.845Z,97021.52
2018-06-01T10:18:20.227Z,97022.14
2018-06-01T10:20:48.647Z,97025.69
2018-06-01T10:23:17.027Z,97036.00
2018-06-01T10:25:45.464Z,97019.95
2018-06-01T10:28:14.018Z,97029.46
2018-06-01T10:33:16.128Z,97030.71
2018-06-01T10:35:44.520Z,97028.95
2018-06-01T10:38:12.920Z,97029.17
2018-06-01T10:40:41.566Z,97021.58
2018-06-01T10:43:11.115Z,97022.18
2018-06-01T10:45:42.740Z,97016.30
2018-06-01T10:48:13.910Z,97014.22
2018-06-01T10:50:43.844Z,97008.27
2018-06-01T10:53:13.559Z,97024.44
2018-06-01T10:55:43.052Z,97019.93
2018-06-01T10:58:14.533Z,97016.02
2018-06-01T11:00:43.375Z,97022.74
2018-06-01T11:03:13.216Z,97024.98
2018-06-01T11:05:41.592Z,97021.30
2018-06-01T11:08:09.985Z,97019.84
2018-06-01T11:10:38.363Z,97022.16
2018-06-01T11:13:06.768Z,97024.57
2018-06-01T11:15:35.152Z,97032.04
2018-06-01T11:18:03.555Z,97029.48
2018-06-01T11:20:31.931Z,97039.22
2018-06-01T11:23:00.335Z,97032.33
2018-06-01T11:25:28.716Z,97041.21
2018-06-01T11:27:57.108Z,97047.43
2018-06-01T11:30:25.530Z,97050.95
2018-06-01T11:32:53.916Z,97048.55
2018-06-01T11:35:22.292Z,97053.50
2018-06-01T11:37:50.708Z,97054.09
2018-06-01T11:40:19.096Z,97053.17
2018-06-01T11:42:47.710Z,97055.27
2018-06-01T11:45:16.174Z,97051.48
2018-06-01T11:47:44.822Z,97056.05
2018-06-01T11:50:13.454Z,97051.69
2018-06-01T11:52:42.000Z,97053.03
2018-06-01T11:55:10.384Z,97056.64
2018-06-01T11:57:38.779Z,97052.69
2018-06-01T12:00:07.164Z,97048.91
2018-06-01T12:02:35.759Z,97050.63
2018-06-01T12:05:04.139Z,97047.78
2018-06-01T12:07:32.543Z,97047.14
2018-06-01T12:10:01.192Z,97046.50
2018-06-01T12:12:29.584Z,97042.30
2018-06-01T12:14:58.044Z,97043.42
2018-06-01T12:17:26.644Z,97042.91
2018-06-01T12:19:55.033Z,97039.56
2018-06-01T12:22:23.652Z,97047.12
2018-06-01T12:24:52.104Z,97048.45
2018-06-01T12:27:20.504Z,97052.39
2018-06-01T12:29:49.047Z,97055.98
2018-06-01T12:32:17.536Z,97052.40
2018-06-01T12:34:45.920Z,97053.95
2018-06-01T12:37:14.324Z,97052.58
2018-06-01T12:39:42.704Z,97053.02
2018-06-01T12:42:11.104Z,97048.63
2018-06-01T12:44:39.493Z,97052.23
2018-06-01T12:47:07.888Z,97048.30
2018-06-01T12:49:36.273Z,97059.99
2018-06-01T12:52:04.673Z,97059.50
2018-06-01T12:54:33.059Z,97060.45
2018-06-01T12:57:01.456Z,97057.56
2018-06-01T12:59:29.840Z,97060.86
2018-06-01T13:01:58.252Z,97059.42
2018-06-01T13:04:26.633Z,97056.36
2018-06-01T13:06:55.044Z,97055.82
2018-06-01T13:09:23.436Z,97055.69
2018-06-01T13:11:51.834Z,97050.07
2018-06-01T13:14:20.217Z,97047.68
2018-06-01T13:16:48.613Z,97040.03
2018-06-01T13:19:16.999Z,97046.95
2018-06-01T13:21:45.393Z,97048.47
2018-06-01T13:24:13.788Z,97044.02
2018-06-01T13:26:42.170Z,97047.92
2018-06-01T13:29:10.572Z,97052.77
2018-06-01T13:31:38.957Z,97051.97
2018-06-01T13:34:07.355Z,97040.34
2018-06-01T13:36:35.740Z,97037.98
2018-06-01T13:39:04.140Z,97044.53
2018-06-01T13:41:32.537Z,97040.02
2018-06-01T13:44:00.932Z,97040.55
2018-06-01T13:46:29.320Z,97045.58
2018-06-01T13:48:57.712Z,97037.86
2018-06-01T13:51:26.091Z,97052.22
2018-06-01T13:53:54.491Z,97043.33
2018-06-01T13:56:22.875Z,97045.88
2018-06-01T13:58:51.276Z,97044.29
2018-06-01T14:01:19.660Z,97038.50
2018-06-01T14:03:48.055Z,97040.00
2018-06-01T14:06:16.728Z,97047.55
2018-06-01T14:08:45.263Z,97047.88
2018-06-01T14:11:13.644Z,97048.89
2018-06-01T14:13:42.048Z,97054.86
2018-06-01T14:16:10.428Z,97048.08
2018-06-01T14:18:38.838Z,97051.39
2018-06-01T14:21:07.214Z,97047.48
2018-06-01T14:23:35.612Z,97048.34
2018-06-01T14:26:03.996Z,97051.17
2018-06-01T14:28:32.388Z,97053.24
2018-06-01T14:31:00.776Z,97041.77
2018-06-01T14:33:29.172Z,97043.13
2018-06-01T14:35:57.552Z,97042.84
2018-06-01T14:38:25.955Z,97048.59
2018-06-01T14:40:54.340Z,97044.91
2018-06-01T14:43:22.739Z,97042.67
2018-06-01T14:45:51.124Z,97044.84
2018-06-01T14:48:19.526Z,97047.70
2018-06-01T14:50:47.907Z,97043.27
2018-06-01T14:53:16.305Z,97037.39
2018-06-01T14:55:44.687Z,97040.81
2018-06-01T14:58:13.105Z,97041.91
2018-06-01T15:00:41.493Z,97040.53
2018-06-01T15:03:09.896Z,97039.23
2018-06-01T15:05:38.918Z,97032.65
2018-06-01T15:08:07.707Z,97037.41
2018-06-01T15:10:36.366Z,97031.77
2018-06-01T15:13:05.280Z,97036.39
2018-06-01T15:15:33.660Z,97028.47
2018-06-01T15:18:02.055Z,97031.96
2018-06-01T15:20:30.426Z,97036.08
2018-06-01T15:22:58.828Z,97033.38
2018-06-01T15:25:27.202Z,97037.10
2018-06-01T15:27:55.645Z,97039.69
2018-06-01T15:30:24.056Z,97038.04
2018-06-01T15:32:52.443Z,97036.34
2018-06-01T15:35:20.832Z,97042.95
2018-06-01T15:37:49.236Z,97046.06
2018-06-01T15:40:17.618Z,97043.92
2018-06-01T15:42:46.024Z,97041.19
2018-06-01T15:45:14.420Z,97048.27
2018-06-01T15:47:42.815Z,97051.47
2018-06-01T15:50:11.200Z,97055.86
2018-06-01T15:52:39.604Z,97056.86
2018-06-01T15:55:07.996Z,97061.83
2018-06-01T15:57:36.397Z,97060.13
2018-06-01T16:00:04.771Z,97053.81
2018-06-01T16:02:33.177Z,97060.45
2018-06-01T16:05:01.568Z,97061.14
2018-06-01T16:07:29.977Z,97058.29
2018-06-01T16:09:59.436Z,97065.61
2018-06-01T16:12:27.853Z,97064.94
2018-06-01T16:14:56.308Z,97065.08
2018-06-01T16:17:24.792Z,97065.48
2018-06-01T16:19:53.265Z,97063.81
2018-06-01T16:22:21.645Z,97066.55
2018-06-01T16:24:50.319Z,97062.08
2018-06-01T16:27:18.980Z,97066.33
2018-06-01T16:29:47.724Z,97056.94
2018-06-01T16:32:16.101Z,97062.79
2018-06-01T16:34:44.503Z,97066.28
2018-06-01T16:37:13.105Z,97063.72
2018-06-01T16:39:41.959Z,97056.52
2018-06-01T16:42:10.341Z,97054.97
2018-06-01T16:44:38.980Z,97058.41
2018-06-01T16:47:07.583Z,97055.45
2018-06-01T16:49:36.075Z,97064.27
2018-06-01T16:52:04.457Z,97064.81
2018-06-01T16:54:32.860Z,97071.17
2018-06-01T16:57:01.256Z,97061.77
2018-06-01T16:59:29.671Z,97063.47
2018-06-01T17:01:58.056Z,97065.70
2018-06-01T17:04:26.443Z,97062.27
2018-06-01T17:06:54.827Z,97069.30
2018-06-01T17:09:23.232Z,97062.88
2018-06-01T17:11:52.487Z,97065.86
2018-06-01T17:14:20.891Z,97067.37
2018-06-01T17:16:49.363Z,97070.02
2018-06-01T17:19:17.775Z,97074.75
2018-06-01T17:21:46.621Z,97075.07
2018-06-01T17:24:15.327Z,97071.88
2018-06-01T17:26:43.808Z,97079.42
2018-06-01T17:29:12.204Z,97076.34
2018-06-01T17:31:40.588Z,97083.55
2018-06-01T17:34:09.007Z,97081.98
2018-06-01T17:36:37.395Z,97081.35
2018-06-01T17:39:05.807Z,97090.96
2018-06-01T17:41:34.184Z,97088.95
2018-06-01T17:44:02.596Z,97086.72
2018-06-01T17:46:30.992Z,97093.47
2018-06-01T17:48:59.396Z,97092.15
2018-06-01T17:51:27.789Z,97097.61
2018-06-01T17:53:56.185Z,97091.63
2018-06-01T17:56:24.555Z,97099.17
2018-06-01T17:58:52.960Z,97099.92
2018-06-01T18:01:21.344Z,97102.09
2018-06-01T18:03:49.746Z,97113.29
2018-06-01T18:06:18.125Z,97117.84
2018-06-01T18:08:46.532Z,97116.94
2018-06-01T18:11:14.908Z,97119.58
2018-06-01T18:13:43.311Z,97122.41
2018-06-01T18:16:12.631Z,97122.55
2018-06-01T18:18:41.424Z,97120.46
2018-06-01T18:21:09.897Z,97120.45
2018-06-01T18:23:38.291Z,97123.34
2018-06-01T18:26:07.050Z,97130.52
2018-06-01T18:28:35.456Z,97128.05
2018-06-01T18:31:03.845Z,97133.91
2018-06-01T18:33:33.311Z,97138.00
2018-06-01T18:36:02.137Z,97136.45
2018-06-01T18:38:30.581Z,97141.34
2018-06-01T18:40:59.401Z,97140.11
2018-06-01T18:43:27.917Z,97145.45
2018-06-01T18:45:56.291Z,97148.13
2018-06-01T18:48:24.717Z,97146.07
2018-06-01T18:50:53.110Z,97146.64
2018-06-01T18:53:22.635Z,97145.34
2018-06-01T18:55:51.084Z,97148.31
2018-06-01T18:58:19.483Z,97148.55
2018-06-01T19:00:47.875Z,97149.95
2018-06-01T19:03:16.280Z,97148.55
2018-06-01T19:05:44.673Z,97150.58
2018-06-01T19:08:13.562Z,97146.47
2018-06-01T19:10:44.986Z,97150.19
2018-06-01T19:13:13.435Z,97152.03
2018-06-01T19:15:42.276Z,97149.67
2018-06-01T19:18:12.152Z,97143.09
2018-06-01T19:20:40.868Z,97141.95
2018-06-01T19:23:09.630Z,97138.62
2018-06-01T19:25:38.619Z,97147.14
2018-06-01T19:28:07.395Z,97148.13
2018-06-01T19:30:36.147Z,97149.49
2018-06-01T19:33:04.724Z,97150.34
2018-06-01T19:35:33.224Z,97148.80
2018-06-01T19:38:05.921Z,97142.84
2018-06-01T19:40:34.926Z,97149.39
2018-06-01T19:43:03.786Z,97142.99
2018-06-01T19:45:32.811Z,97148.21
2018-06-01T19:48:01.581Z,97150.08
2018-06-01T19:50:30.521Z,97157.14
2018-06-01T19:52:59.446Z,97154.02
2018-06-01T19:55:28.434Z,97166.02
2018-06-01T19:57:57.100Z,97158.86
2018-06-01T20:00:25.990Z,97174.48
2018-06-01T20:02:54.465Z,97169.78
2018-06-01T20:05:22.864Z,97170.80
2018-06-01T20:07:51.248Z,97171.20
2018-06-01T20:10:20.623Z,97170.09
2018-06-01T20:12:49.003Z,97167.23
2018-06-01T20:15:17.400Z,97174.44
2018-06-01T20:17:45.783Z,97171.56
2018-06-01T20:20:14.187Z,97177.25
2018-06-01T20:22:42.570Z,97174.35
2018-06-01T20:25:11.948Z,97178.91
2018-06-01T20:27:40.323Z,97172.52
2018-06-01T20:30:08.731Z,97169.91
2018-06-01T20:32:37.115Z,97173.09
2018-06-01T20:35:05.528Z,97176.84
2018-06-01T20:37:33.908Z,97172.63
2018-06-01T20:40:02.312Z,97183.86
2018-06-01T20:42:30.718Z,97181.55
2018-06-01T20:44:59.124Z,97182.84
2018-06-01T20:47:27.508Z,97180.38
2018-06-01T20:49:55.911Z,97185.16
2018-06-01T20:52:24.290Z,97183.09
2018-06-01T20:54:52.690Z,97184.55
2018-06-01T20:57:21.471Z,97186.13
2018-06-01T20:59:49.936Z,97189.23
2018-06-01T21:02:18.711Z,97192.05
2018-06-01T21:04:47.212Z,97189.84
2018-06-01T21:07:15.851Z,97189.33
2018-06-01T21:09:44.723Z,97190.10
2018-06-01T21:12:14.821Z,97183.89
2018-06-01T21:14:46.326Z,97192.91
2018-06-01T21:17:15.183Z,97194.31
2018-06-01T21:19:44.069Z,97185.34
2018-06-01T21:22:12.724Z,97187.48
2018-06-01T21:24:41.279Z,97184.30
2018-06-01T21:27:10.225Z,97177.30
2018-06-01T21:29:39.020Z,97171.43
2018-06-01T21:32:07.752Z,97181.91
2018-06-01T21:34:36.512Z,97179.74
2018-06-01T21:37:05.430Z,97183.45
2018-06-01T21:39:33.920Z,97185.23
2018-06-01T21:42:02.732Z,97184.08
2018-06-01T21:44:31.607Z,97190.20
2018-06-01T21:47:00.020Z,97192.05
2018-06-01T21:49:28.523Z,97186.55
2018-06-01T21:51:57.041Z,97190.86
2018-06-01T21:54:26.019Z,97195.74
2018-06-01T21:56:54.620Z,97190.68
2018-06-01T21:59:23.011Z,97192.27
2018-06-01T22:01:51.804Z,97195.45
2018-06-01T22:04:20.758Z,97189.77
2018-06-01T22:06:49.153Z,97195.23
2018-06-01T22:09:17.723Z,97191.52
2018-06-01T22:11:46.252Z,97195.89
2018-06-01T22:14:15.626Z,97198.66
2018-06-01T22:16:46.572Z,97204.09
2018-06-01T22:19:15.095Z,97207.50
2018-06-01T22:21:43.619Z,97201.78
2018-06-01T22:24:12.024Z,97202.07
2018-06-01T22:26:40.520Z,97202.63
2018-06-01T22:29:09.260Z,97202.98
2018-06-01T22:31:37.635Z,97206.36
2018-06-01T22:34:06.036Z,97205.02
2018-06-01T22:36:34.420Z,97211.80
2018-06-01T22:39:02.800Z,97210.98
2018-06-01T22:41:31.196Z,97207.66
2018-06-01T22:43:59.596Z,97201.70
2018-06-01T22:46:27.975Z,97205.66
2018-06-01T22:48:56.356Z,97205.64
2018-06-01T22:51:24.752Z,97194.67
2018-06-01T22:53:53.120Z,97195.14
2018-06-01T22:56:21.516Z,97203.56
2018-06-01T22:58:49.900Z,97203.81
2018-06-01T23:01:18.291Z,97198.22
2018-06-01T23:03:46.671Z,97198.27
2018-06-01T23:06:15.076Z,97194.27
2018-06-01T23:08:43.456Z,97194.67
2018-06-01T23:11:11.868Z,97194.14
2018-06-01T23:13:40.644Z,97187.37
2018-06-01T23:16:09.052Z,97185.22
2018-06-01T23:18:38.106Z,97189.73
2018-06-01T23:21:06.931Z,97187.30
2018-06-01T23:23:35.837Z,97185.79
2018-06-01T23:26:04.410Z,97187.34
2018-06-01T23:28:32.788Z,97190.68
2018-06-01T23:31:01.422Z,97188.58
2018-06-01T23:33:29.972Z,97191.96
2018-06-01T23:35:59.796Z,97195.84
2018-06-01T23:38:29.608Z,97194.02
2018-06-01T23:40:58.300Z,97199.59
2018-06-01T23:43:27.011Z,97194.83
2018-06-01T23:45:55.930Z,97194.58
2018-06-01T23:48:24.645Z,97186.13
2018-06-01T23:50:53.328Z,97185.05
2018-06-01T23:53:22.128Z,97186.38
2018-06-01T23:55:50.881Z,97181.55
2018-06-01T23:58:19.763Z,97175.03
